Time;durP1;ratioP1;P1;durP2;ratioP2;P2;SDS_P1;SDS_P2;PMS_P1;PMS_P2;Temp;Humidity;BMP_temperature;BMP_pressure;BME280_temperature;BME280_humidity;BME280_pressure;Samples;Min_cycle;Max_cycle;Signal;HPM_P1;HPM_P2
2020/12/08 00:00:52;;;;;;;6.13;0.90;;;;;;;;;;5054678;28;20679;-52
2020/12/08 00:03:18;;;;;;;4.28;0.77;;;;;;;;;;5053548;28;20588;-55
2020/12/08 00:05:44;;;;;;;3.15;0.60;;;;;;;;;;5055366;28;20065;-53
2020/12/08 00:08:09;;;;;;;8.68;0.90;;;;;;;;;;5051797;28;20045;-56
2020/12/08 00:10:36;;;;;;;9.90;1.30;;;;;;;;;;5051487;28;20044;-57
2020/12/08 00:13:01;;;;;;;4.30;1.00;;;;;;;;;;5067788;28;20126;-54
2020/12/08 00:15:27;;;;;;;6.05;0.68;;;;;;;;;;5051474;28;20045;-56
2020/12/08 00:17:53;;;;;;;4.43;0.90;;;;;;;;;;5053449;28;20113;-53
2020/12/08 00:20:19;;;;;;;5.13;0.95;;;;;;;;;;5053280;28;20119;-56
2020/12/08 00:22:45;;;;;;;7.57;0.80;;;;;;;;;;5054617;28;20396;-54
2020/12/08 00:25:11;;;;;;;3.13;0.70;;;;;;;;;;5045916;28;20079;-53
2020/12/08 00:27:38;;;;;;;7.90;0.70;;;;;;;;;;5045612;28;22456;-52
2020/12/08 00:30:11;;;;;;;5.25;0.75;;;;;;;;;;5054022;28;20049;-54
2020/12/08 00:32:37;;;;;;;13.52;1.83;;;;;;;;;;5052674;28;20057;-53
2020/12/08 00:35:03;;;;;;;7.65;0.80;;;;;;;;;;5054113;28;20050;-54
2020/12/08 00:37:29;;;;;;;5.85;1.02;;;;;;;;;;5053198;28;20049;-51
2020/12/08 00:39:55;;;;;;;5.80;1.00;;;;;;;;;;5053879;28;20837;-56
2020/12/08 00:42:21;;;;;;;4.25;0.90;;;;;;;;;;5052687;28;20048;-53
2020/12/08 00:44:47;;;;;;;5.32;0.90;;;;;;;;;;5054391;28;20848;-52
2020/12/08 00:47:12;;;;;;;4.63;0.98;;;;;;;;;;5052873;28;20173;-54
2020/12/08 00:49:38;;;;;;;5.55;0.90;;;;;;;;;;5053451;28;20072;-56
2020/12/08 00:52:04;;;;;;;9.85;1.17;;;;;;;;;;5054452;28;20097;-55
2020/12/08 00:54:30;;;;;;;7.78;1.45;;;;;;;;;;5053304;28;20041;-52
2020/12/08 00:56:56;;;;;;;7.43;0.80;;;;;;;;;;5052687;28;20744;-55
2020/12/08 00:59:22;;;;;;;3.55;0.90;;;;;;;;;;5053264;28;20064;-53
2020/12/08 01:01:47;;;;;;;3.47;0.85;;;;;;;;;;5053818;28;20045;-54
2020/12/08 01:04:13;;;;;;;4.80;0.80;;;;;;;;;;5054358;28;20037;-55
2020/12/08 01:06:40;;;;;;;2.95;0.80;;;;;;;;;;5052954;28;20090;-55
2020/12/08 01:09:06;;;;;;;5.70;0.70;;;;;;;;;;5053120;28;20134;-56
2020/12/08 01:11:42;;;;;;;4.75;0.80;;;;;;;;;;5053526;28;20029;-54
2020/12/08 01:14:12;;;;;;;7.88;1.88;;;;;;;;;;5052793;28;20053;-55
2020/12/08 01:16:38;;;;;;;4.30;1.05;;;;;;;;;;5053497;28;20107;-54
2020/12/08 01:19:04;;;;;;;4.00;0.90;;;;;;;;;;5052547;28;20048;-53
2020/12/08 01:21:30;;;;;;;5.35;0.90;;;;;;;;;;5052971;28;20037;-55
2020/12/08 01:23:56;;;;;;;3.97;1.00;;;;;;;;;;5052399;28;20055;-54
2020/12/08 01:26:23;;;;;;;4.15;0.93;;;;;;;;;;5052186;28;20851;-52
2020/12/08 01:28:49;;;;;;;10.32;1.70;;;;;;;;;;5051708;28;20048;-56
2020/12/08 01:31:15;;;;;;;11.52;4.47;;;;;;;;;;5053140;28;20037;-54
2020/12/08 01:33:41;;;;;;;8.77;3.20;;;;;;;;;;5051809;28;20049;-53
2020/12/08 01:36:07;;;;;;;15.65;3.03;;;;;;;;;;5053650;28;20053;-55
2020/12/08 01:38:32;;;;;;;10.90;2.05;;;;;;;;;;5050437;28;20073;-55
2020/12/08 01:40:58;;;;;;;12.27;1.58;;;;;;;;;;5051933;28;20354;-53
2020/12/08 01:43:24;;;;;;;8.98;1.33;;;;;;;;;;5051157;28;20056;-55
2020/12/08 01:45:50;;;;;;;8.00;1.38;;;;;;;;;;5051880;28;20045;-56
2020/12/08 01:48:16;;;;;;;8.95;1.30;;;;;;;;;;5052194;28;20098;-57
2020/12/08 01:50:43;;;;;;;10.52;1.85;;;;;;;;;;5050179;28;20049;-56
2020/12/08 01:53:12;;;;;;;6.00;1.20;;;;;;;;;;5051535;28;20045;-52
2020/12/08 01:55:38;;;;;;;8.32;1.27;;;;;;;;;;5050435;28;20045;-55
2020/12/08 01:58:22;;;;;;;21.80;6.45;;;;;;;;;;5050787;28;20123;-54
2020/12/08 02:00:48;;;;;;;15.63;1.88;;;;;;;;;;5049830;28;20045;-56
2020/12/08 02:03:17;;;;;;;13.52;2.20;;;;;;;;;;5050135;28;20033;-54
2020/12/08 02:05:46;;;;;;;11.02;2.20;;;;;;;;;;5050544;28;20147;-53
2020/12/08 02:08:12;;;;;;;19.10;2.65;;;;;;;;;;5050988;28;20084;-54
2020/12/08 02:10:38;;;;;;;15.82;3.25;;;;;;;;;;5050449;28;20069;-55
2020/12/08 02:13:10;;;;;;;18.48;2.50;;;;;;;;;;5050394;28;20049;-55
2020/12/08 02:15:36;;;;;;;11.05;2.72;;;;;;;;;;5051417;28;20070;-56
2020/12/08 02:18:02;;;;;;;14.40;2.53;;;;;;;;;;5050661;28;20607;-54
2020/12/08 02:20:28;;;;;;;16.08;3.08;;;;;;;;;;5050294;28;20071;-54
2020/12/08 02:22:57;;;;;;;16.65;3.13;;;;;;;;;;5050267;28;20056;-53
2020/12/08 02:25:24;;;;;;;15.40;2.60;;;;;;;;;;5050107;28;20064;-53
2020/12/08 02:27:50;;;;;;;17.15;3.25;;;;;;;;;;5049604;28;20076;-57
2020/12/08 02:30:15;;;;;;;16.77;3.17;;;;;;;;;;5065850;28;22193;-51
2020/12/08 02:32:41;;;;;;;17.58;3.47;;;;;;;;;;5049930;28;20052;-57
2020/12/08 02:35:08;;;;;;;24.00;7.25;;;;;;;;;;5050183;28;20068;-56
2020/12/08 02:37:34;;;;;;;22.38;4.55;;;;;;;;;;5049660;28;20057;-54
2020/12/08 02:40:01;;;;;;;19.65;3.58;;;;;;;;;;5049798;28;20037;-55
2020/12/08 02:42:27;;;;;;;31.77;4.53;;;;;;;;;;5049399;28;20064;-52
2020/12/08 02:44:52;;;;;;;15.25;3.15;;;;;;;;;;5050259;28;20037;-54
2020/12/08 02:47:18;;;;;;;15.90;3.50;;;;;;;;;;5048910;28;20068;-52
2020/12/08 02:49:44;;;;;;;16.35;3.10;;;;;;;;;;5050585;28;20037;-53
2020/12/08 02:52:10;;;;;;;21.00;3.17;;;;;;;;;;5050799;28;20037;-51
2020/12/08 02:54:36;;;;;;;16.38;3.38;;;;;;;;;;5049540;28;20040;-52
2020/12/08 02:57:05;;;;;;;17.00;3.40;;;;;;;;;;5048518;28;20052;-56
2020/12/08 02:59:31;;;;;;;19.75;3.88;;;;;;;;;;5048505;28;20037;-53
2020/12/08 03:01:58;;;;;;;13.25;3.13;;;;;;;;;;5050183;28;20067;-54
2020/12/08 03:04:24;;;;;;;13.32;3.47;;;;;;;;;;5065140;28;20037;-53
2020/12/08 03:06:50;;;;;;;13.45;3.67;;;;;;;;;;5049335;28;20052;-55
2020/12/08 03:09:15;;;;;;;23.23;3.35;;;;;;;;;;5050697;28;20033;-52
2020/12/08 03:11:41;;;;;;;13.82;3.08;;;;;;;;;;5050307;28;20788;-56
2020/12/08 03:14:07;;;;;;;15.07;3.35;;;;;;;;;;5052835;28;20037;-52
2020/12/08 03:16:34;;;;;;;15.73;3.35;;;;;;;;;;5054295;28;20060;-52
2020/12/08 03:19:00;;;;;;;16.65;4.47;;;;;;;;;;5053653;28;20044;-51
2020/12/08 03:21:26;;;;;;;16.98;2.88;;;;;;;;;;5053566;28;20041;-57
2020/12/08 03:23:52;;;;;;;13.43;2.83;;;;;;;;;;5051349;28;20057;-58
2020/12/08 03:26:24;;;;;;;15.52;5.47;;;;;;;;;;5053822;28;20097;-54
2020/12/08 03:28:50;;;;;;;25.05;5.07;;;;;;;;;;5053100;28;20037;-54
2020/12/08 03:31:16;;;;;;;20.73;3.70;;;;;;;;;;5053382;28;20037;-52
2020/12/08 03:33:42;;;;;;;12.57;3.15;;;;;;;;;;5052638;28;20052;-53
2020/12/08 03:36:21;;;;;;;13.52;3.35;;;;;;;;;;5054432;28;20075;-52
2020/12/08 03:38:49;;;;;;;16.23;3.08;;;;;;;;;;5052102;28;20048;-53
2020/12/08 03:41:19;;;;;;;15.07;3.00;;;;;;;;;;5053487;28;20119;-55
2020/12/08 03:43:45;;;;;;;11.15;3.08;;;;;;;;;;5050588;28;20049;-53
2020/12/08 03:46:15;;;;;;;10.35;2.17;;;;;;;;;;5053799;28;20131;-55
2020/12/08 03:48:42;;;;;;;19.33;3.15;;;;;;;;;;5052308;28;20033;-51
2020/12/08 03:51:11;;;;;;;17.48;3.00;;;;;;;;;;5051994;28;20106;-53
2020/12/08 03:53:37;;;;;;;16.88;3.10;;;;;;;;;;5053323;28;20153;-55
2020/12/08 03:56:03;;;;;;;11.82;3.10;;;;;;;;;;5053722;28;20041;-54
2020/12/08 03:58:29;;;;;;;17.38;2.90;;;;;;;;;;5049161;28;20222;-53
2020/12/08 04:00:54;;;;;;;13.02;2.88;;;;;;;;;;5052390;28;20047;-53
2020/12/08 04:03:20;;;;;;;10.77;2.33;;;;;;;;;;5053383;28;20105;-53
2020/12/08 04:05:46;;;;;;;11.23;2.00;;;;;;;;;;5054063;28;20495;-55
2020/12/08 04:08:12;;;;;;;11.73;2.38;;;;;;;;;;5054149;28;20037;-50
2020/12/08 04:10:38;;;;;;;11.07;2.30;;;;;;;;;;5051172;28;20040;-52
2020/12/08 04:13:06;;;;;;;8.77;2.47;;;;;;;;;;5056812;28;20036;-55
2020/12/08 04:15:32;;;;;;;14.32;3.80;;;;;;;;;;5054266;28;20045;-51
2020/12/08 04:17:58;;;;;;;6.75;2.10;;;;;;;;;;5052883;28;20214;-52
2020/12/08 04:20:24;;;;;;;9.02;2.13;;;;;;;;;;5051867;28;20037;-55
2020/12/08 04:22:50;;;;;;;9.00;2.35;;;;;;;;;;5053330;28;20065;-53
2020/12/08 04:25:15;;;;;;;9.98;2.70;;;;;;;;;;5051801;28;20041;-54
2020/12/08 04:27:41;;;;;;;11.18;2.47;;;;;;;;;;5051966;28;20117;-55
2020/12/08 04:30:07;;;;;;;11.75;3.25;;;;;;;;;;5053674;28;20037;-52
2020/12/08 04:32:33;;;;;;;10.40;2.83;;;;;;;;;;5053013;28;20037;-54
2020/12/08 04:34:59;;;;;;;13.15;3.13;;;;;;;;;;5053939;28;20036;-54
2020/12/08 04:37:25;;;;;;;17.42;4.15;;;;;;;;;;5051677;28;20766;-55
2020/12/08 04:39:51;;;;;;;12.70;3.13;;;;;;;;;;5052288;28;20033;-55
2020/12/08 04:42:16;;;;;;;7.85;2.80;;;;;;;;;;5052914;28;20041;-52
2020/12/08 04:44:42;;;;;;;12.27;3.28;;;;;;;;;;5051306;28;20101;-53
2020/12/08 04:47:15;;;;;;;11.57;2.80;;;;;;;;;;5051947;28;20131;-56
2020/12/08 04:49:41;;;;;;;10.13;2.65;;;;;;;;;;5052346;28;20064;-56
2020/12/08 04:52:07;;;;;;;11.07;3.40;;;;;;;;;;5052174;28;20600;-55
2020/12/08 04:54:33;;;;;;;9.70;2.75;;;;;;;;;;5051985;28;20051;-54
2020/12/08 04:56:59;;;;;;;13.23;2.90;;;;;;;;;;5052973;28;20154;-53
2020/12/08 04:59:24;;;;;;;7.57;2.40;;;;;;;;;;5051914;28;20045;-52
2020/12/08 05:01:50;;;;;;;14.85;3.03;;;;;;;;;;5053423;28;20044;-55
2020/12/08 05:04:23;;;;;;;11.60;2.70;;;;;;;;;;5053426;28;20118;-55
2020/12/08 05:07:01;;;;;;;11.88;2.90;;;;;;;;;;5052022;28;20029;-55
2020/12/08 05:09:27;;;;;;;12.82;2.50;;;;;;;;;;5051883;28;20159;-55
2020/12/08 05:11:59;;;;;;;17.15;2.92;;;;;;;;;;5050865;28;20044;-53
2020/12/08 05:14:25;;;;;;;8.32;3.00;;;;;;;;;;5052133;28;20059;-52
2020/12/08 05:17:11;;;;;;;8.52;2.58;;;;;;;;;;5051223;28;20060;-53
2020/12/08 05:19:37;;;;;;;12.57;2.83;;;;;;;;;;5052232;28;20037;-55
2020/12/08 05:22:03;;;;;;;12.07;3.00;;;;;;;;;;5053193;28;20112;-53
2020/12/08 05:24:30;;;;;;;10.50;2.85;;;;;;;;;;5052021;28;20040;-55
2020/12/08 05:26:59;;;;;;;9.02;2.75;;;;;;;;;;5052007;28;20056;-55
2020/12/08 05:29:26;;;;;;;8.40;3.03;;;;;;;;;;5052376;28;20041;-55
2020/12/08 05:31:52;;;;;;;7.22;2.92;;;;;;;;;;5052552;28;20033;-55
2020/12/08 05:34:19;;;;;;;10.65;3.33;;;;;;;;;;5052363;28;20033;-56
2020/12/08 05:36:52;;;;;;;8.07;3.20;;;;;;;;;;5051370;28;20078;-55
2020/12/08 05:39:18;;;;;;;11.10;3.03;;;;;;;;;;5051580;28;20441;-52
2020/12/08 05:41:45;;;;;;;8.18;3.00;;;;;;;;;;5051671;28;20033;-54
2020/12/08 05:44:15;;;;;;;6.82;2.45;;;;;;;;;;5052415;28;20049;-57
2020/12/08 05:46:42;;;;;;;10.40;2.60;;;;;;;;;;5052043;28;20784;-55
2020/12/08 05:49:14;;;;;;;8.02;2.50;;;;;;;;;;5053732;28;20041;-52
2020/12/08 05:51:42;;;;;;;12.63;3.05;;;;;;;;;;5052812;28;20060;-54
2020/12/08 05:54:11;;;;;;;11.10;3.20;;;;;;;;;;5053153;28;20037;-56
2020/12/08 05:56:37;;;;;;;9.75;2.63;;;;;;;;;;5051515;28;20072;-52
2020/12/08 05:59:03;;;;;;;8.95;2.40;;;;;;;;;;5053248;28;20040;-56
2020/12/08 06:01:29;;;;;;;11.35;2.80;;;;;;;;;;5052659;28;20072;-55
2020/12/08 06:03:55;;;;;;;7.40;2.53;;;;;;;;;;5052192;28;20048;-54
2020/12/08 06:06:21;;;;;;;9.93;2.67;;;;;;;;;;5052101;28;20584;-56
2020/12/08 06:08:48;;;;;;;8.90;2.20;;;;;;;;;;5053232;28;20124;-53
2020/12/08 06:11:27;;;;;;;11.35;2.63;;;;;;;;;;5052724;28;20134;-56
2020/12/08 06:13:53;;;;;;;10.38;2.65;;;;;;;;;;5041827;28;20113;-56
2020/12/08 06:16:23;;;;;;;11.07;2.67;;;;;;;;;;5051262;28;20041;-56
2020/12/08 06:18:49;;;;;;;9.35;2.05;;;;;;;;;;5051451;28;20071;-55
2020/12/08 06:21:24;;;;;;;8.13;2.65;;;;;;;;;;5051290;28;20056;-56
2020/12/08 06:23:51;;;;;;;10.27;2.70;;;;;;;;;;5050601;28;20654;-52
2020/12/08 06:26:23;;;;;;;8.88;3.17;;;;;;;;;;5050402;28;20051;-56
2020/12/08 06:28:51;;;;;;;6.85;2.80;;;;;;;;;;5051239;28;20497;-55
2020/12/08 06:31:17;;;;;;;9.48;2.72;;;;;;;;;;5052023;28;20051;-55
2020/12/08 06:33:49;;;;;;;11.40;2.63;;;;;;;;;;5051836;28;20029;-55
2020/12/08 06:36:16;;;;;;;12.25;2.40;;;;;;;;;;5051679;28;20827;-55
2020/12/08 06:38:42;;;;;;;5.93;2.25;;;;;;;;;;5049751;28;20043;-54
2020/12/08 06:41:07;;;;;;;8.32;2.53;;;;;;;;;;5051843;28;20044;-56
2020/12/08 06:43:38;;;;;;;8.95;2.78;;;;;;;;;;5050762;28;20040;-53
2020/12/08 06:46:10;;;;;;;10.88;2.58;;;;;;;;;;5051818;28;20036;-54
2020/12/08 06:48:36;;;;;;;8.93;2.80;;;;;;;;;;5049437;28;20051;-55
2020/12/08 06:51:02;;;;;;;12.63;3.05;;;;;;;;;;5050632;28;20037;-55
2020/12/08 06:53:28;;;;;;;8.55;2.53;;;;;;;;;;5050646;28;20063;-55
2020/12/08 06:55:55;;;;;;;14.52;2.78;;;;;;;;;;5051379;28;20095;-54
2020/12/08 06:58:21;;;;;;;6.20;2.15;;;;;;;;;;5050932;28;20135;-54
2020/12/08 07:00:47;;;;;;;5.85;2.25;;;;;;;;;;5050937;28;20730;-53
2020/12/08 07:03:13;;;;;;;9.15;2.63;;;;;;;;;;5051564;28;20037;-55
2020/12/08 07:05:39;;;;;;;7.38;2.00;;;;;;;;;;5050449;28;20041;-54
2020/12/08 07:08:06;;;;;;;4.53;2.00;;;;;;;;;;5050220;28;20095;-53
2020/12/08 07:10:36;;;;;;;7.25;2.00;;;;;;;;;;5049745;28;20068;-53
2020/12/08 07:13:08;;;;;;;5.47;2.10;;;;;;;;;;5049231;28;20440;-53
2020/12/08 07:15:34;;;;;;;8.23;2.13;;;;;;;;;;5049656;28;20060;-56
2020/12/08 07:18:04;;;;;;;9.30;2.00;;;;;;;;;;5064794;28;20486;-54
2020/12/08 07:20:30;;;;;;;7.28;1.90;;;;;;;;;;5046021;28;20033;-56
2020/12/08 07:22:55;;;;;;;8.98;1.80;;;;;;;;;;5050715;28;20044;-54
2020/12/08 07:25:22;;;;;;;7.35;2.03;;;;;;;;;;5050946;28;20059;-55
2020/12/08 07:27:49;;;;;;;7.50;2.10;;;;;;;;;;5051154;28;20060;-56
2020/12/08 07:30:17;;;;;;;7.20;1.60;;;;;;;;;;5051080;28;20087;-54
2020/12/08 07:32:43;;;;;;;6.75;2.08;;;;;;;;;;5051473;28;20043;-54
2020/12/08 07:35:28;;;;;;;7.60;1.98;;;;;;;;;;5051467;28;20096;-56
2020/12/08 07:37:58;;;;;;;7.88;2.08;;;;;;;;;;5038820;28;20063;-52
2020/12/08 07:40:31;;;;;;;7.57;2.00;;;;;;;;;;5050840;28;20037;-52
2020/12/08 07:42:57;;;;;;;6.68;1.90;;;;;;;;;;5051581;28;20532;-53
2020/12/08 07:45:22;;;;;;;5.32;2.08;;;;;;;;;;5051196;28;20090;-54
2020/12/08 07:47:52;;;;;;;6.13;1.83;;;;;;;;;;5050727;28;20064;-52
2020/12/08 07:50:22;;;;;;;6.43;2.10;;;;;;;;;;5045446;28;20041;-56
2020/12/08 07:52:58;;;;;;;6.78;1.80;;;;;;;;;;5051485;28;20128;-53
2020/12/08 07:55:24;;;;;;;5.68;1.83;;;;;;;;;;5050101;28;20489;-56
2020/12/08 07:57:50;;;;;;;5.93;1.80;;;;;;;;;;5049667;28;20141;-52
2020/12/08 08:00:17;;;;;;;7.22;1.58;;;;;;;;;;5051404;28;20033;-54
2020/12/08 08:02:43;;;;;;;5.93;1.70;;;;;;;;;;5053268;28;20052;-54
2020/12/08 08:05:08;;;;;;;4.75;2.13;;;;;;;;;;5060153;28;20041;-56
2020/12/08 08:07:34;;;;;;;5.22;1.75;;;;;;;;;;5053704;28;20061;-52
2020/12/08 08:10:00;;;;;;;5.45;1.80;;;;;;;;;;5053817;28;20045;-55
2020/12/08 08:12:26;;;;;;;4.45;1.60;;;;;;;;;;5049434;28;20067;-55
2020/12/08 08:14:52;;;;;;;9.02;2.00;;;;;;;;;;5054351;28;20052;-51
2020/12/08 08:17:17;;;;;;;6.28;2.22;;;;;;;;;;5053348;28;20045;-54
2020/12/08 08:19:43;;;;;;;5.85;2.20;;;;;;;;;;5054211;28;20064;-54
2020/12/08 08:22:09;;;;;;;4.60;1.73;;;;;;;;;;5055057;28;20045;-50
2020/12/08 08:24:35;;;;;;;4.70;1.77;;;;;;;;;;5053747;28;20048;-55
2020/12/08 08:27:01;;;;;;;4.63;1.50;;;;;;;;;;5054366;28;20036;-54
2020/12/08 08:29:27;;;;;;;5.38;1.60;;;;;;;;;;5052284;28;20033;-56
2020/12/08 08:31:52;;;;;;;4.88;1.40;;;;;;;;;;5054744;28;20047;-53
2020/12/08 08:34:18;;;;;;;6.65;1.75;;;;;;;;;;5053023;28;20055;-53
2020/12/08 08:36:50;;;;;;;5.00;1.60;;;;;;;;;;5053093;28;20045;-53
2020/12/08 08:39:16;;;;;;;5.63;1.50;;;;;;;;;;5053801;28;20049;-53
2020/12/08 08:41:42;;;;;;;5.82;1.70;;;;;;;;;;5053181;28;20060;-54
2020/12/08 08:44:08;;;;;;;4.10;1.60;;;;;;;;;;5053037;28;20110;-52
2020/12/08 08:46:34;;;;;;;5.13;1.40;;;;;;;;;;5052988;28;20420;-52
2020/12/08 08:49:00;;;;;;;4.25;1.40;;;;;;;;;;5054404;28;20049;-55
2020/12/08 08:51:26;;;;;;;6.82;1.73;;;;;;;;;;5052679;28;20128;-55
2020/12/08 08:53:52;;;;;;;5.40;1.60;;;;;;;;;;5051554;28;20049;-53
2020/12/08 08:56:18;;;;;;;7.53;1.67;;;;;;;;;;5052644;28;20052;-51
2020/12/08 08:58:44;;;;;;;4.40;1.55;;;;;;;;;;5046491;28;20044;-55
2020/12/08 09:01:09;;;;;;;3.28;1.33;;;;;;;;;;5048233;28;20082;-55
2020/12/08 09:03:35;;;;;;;5.82;1.90;;;;;;;;;;5052539;28;20056;-53
2020/12/08 09:06:01;;;;;;;5.10;1.40;;;;;;;;;;5052966;28;20067;-53
2020/12/08 09:08:27;;;;;;;5.95;1.60;;;;;;;;;;5050392;28;20100;-54
2020/12/08 09:10:53;;;;;;;6.63;2.17;;;;;;;;;;5052137;28;20143;-53
2020/12/08 09:13:19;;;;;;;4.85;1.73;;;;;;;;;;5052157;28;20041;-55
2020/12/08 09:15:45;;;;;;;5.30;1.73;;;;;;;;;;5051200;28;20036;-55
2020/12/08 09:18:11;;;;;;;4.85;1.73;;;;;;;;;;5051145;28;20049;-54
2020/12/08 09:20:37;;;;;;;5.30;1.58;;;;;;;;;;5051530;28;20080;-54
2020/12/08 09:23:03;;;;;;;7.75;1.60;;;;;;;;;;5052019;28;20033;-54
2020/12/08 09:25:29;;;;;;;6.35;1.60;;;;;;;;;;5052175;28;20041;-54
2020/12/08 09:27:55;;;;;;;4.25;1.55;;;;;;;;;;5052136;28;20047;-56
2020/12/08 09:30:22;;;;;;;9.43;1.80;;;;;;;;;;5052129;28;20367;-52
2020/12/08 09:32:48;;;;;;;6.57;1.77;;;;;;;;;;5053118;28;20025;-54
2020/12/08 09:35:15;;;;;;;3.92;1.40;;;;;;;;;;5051955;28;20045;-51
2020/12/08 09:37:41;;;;;;;4.28;1.50;;;;;;;;;;5051148;28;20041;-55
2020/12/08 09:40:07;;;;;;;4.10;1.50;;;;;;;;;;5052921;28;20529;-54
2020/12/08 09:42:33;;;;;;;4.72;1.60;;;;;;;;;;5052434;28;20037;-53
2020/12/08 09:44:58;;;;;;;5.82;1.58;;;;;;;;;;5051180;28;20045;-54
2020/12/08 09:47:24;;;;;;;5.13;1.75;;;;;;;;;;5051493;28;20041;-55
2020/12/08 09:49:50;;;;;;;6.95;1.90;;;;;;;;;;5052378;28;20056;-53
2020/12/08 09:52:16;;;;;;;7.32;1.77;;;;;;;;;;5051231;28;20037;-51
2020/12/08 09:54:42;;;;;;;6.57;1.65;;;;;;;;;;5051456;28;20102;-53
2020/12/08 09:57:08;;;;;;;7.75;2.17;;;;;;;;;;5051802;28;20509;-56
2020/12/08 09:59:35;;;;;;;5.00;1.92;;;;;;;;;;5050776;28;20590;-56
2020/12/08 10:02:04;;;;;;;4.60;1.80;;;;;;;;;;5052367;28;20041;-55
2020/12/08 10:04:32;;;;;;;5.90;1.75;;;;;;;;;;5049829;28;20048;-52
2020/12/08 10:06:58;;;;;;;6.80;1.85;;;;;;;;;;5051316;28;20071;-56
2020/12/08 10:09:24;;;;;;;9.23;2.00;;;;;;;;;;5050627;28;20052;-56
2020/12/08 10:11:49;;;;;;;8.23;1.77;;;;;;;;;;5051621;28;20029;-53
2020/12/08 10:14:15;;;;;;;6.63;1.73;;;;;;;;;;5050775;28;20040;-53
2020/12/08 10:16:41;;;;;;;3.65;1.38;;;;;;;;;;5049255;28;20040;-56
2020/12/08 10:19:07;;;;;;;4.13;1.40;;;;;;;;;;5051029;28;20048;-54
2020/12/08 10:21:34;;;;;;;7.60;1.60;;;;;;;;;;5050073;28;20036;-55
2020/12/08 10:24:00;;;;;;;8.75;1.60;;;;;;;;;;5050859;28;20065;-54
2020/12/08 10:26:26;;;;;;;7.68;1.63;;;;;;;;;;5049911;28;20036;-54
2020/12/08 10:28:52;;;;;;;8.63;1.73;;;;;;;;;;5051331;28;20072;-55
2020/12/08 10:31:18;;;;;;;7.57;1.60;;;;;;;;;;5049384;28;20037;-52
2020/12/08 10:33:47;;;;;;;5.38;1.70;;;;;;;;;;5051941;28;20052;-55
2020/12/08 10:36:13;;;;;;;6.47;1.63;;;;;;;;;;5050149;28;20069;-55
2020/12/08 10:38:39;;;;;;;6.32;1.80;;;;;;;;;;5050017;28;20037;-56
2020/12/08 10:41:05;;;;;;;4.45;1.55;;;;;;;;;;5051194;28;20085;-55
2020/12/08 10:43:31;;;;;;;7.28;1.70;;;;;;;;;;5049139;28;20741;-55
2020/12/08 10:45:57;;;;;;;6.97;1.85;;;;;;;;;;5051222;28;20055;-56
2020/12/08 10:48:23;;;;;;;9.95;1.70;;;;;;;;;;5049012;28;20048;-55
2020/12/08 10:50:49;;;;;;;6.40;1.60;;;;;;;;;;5050549;28;20033;-55
2020/12/08 10:53:15;;;;;;;6.10;1.42;;;;;;;;;;5050783;28;20067;-54
2020/12/08 10:55:40;;;;;;;6.72;1.70;;;;;;;;;;5049807;28;20100;-56
2020/12/08 10:58:06;;;;;;;10.75;1.73;;;;;;;;;;5050614;28;20061;-53
2020/12/08 11:00:32;;;;;;;5.60;1.60;;;;;;;;;;5050777;28;20029;-54
2020/12/08 11:03:01;;;;;;;5.93;1.65;;;;;;;;;;5050371;28;20106;-53
2020/12/08 11:05:27;;;;;;;6.53;1.70;;;;;;;;;;5049853;28;20048;-56
2020/12/08 11:07:53;;;;;;;5.00;1.50;;;;;;;;;;5049671;28;20025;-55
2020/12/08 11:10:19;;;;;;;7.18;1.60;;;;;;;;;;5050012;28;20040;-56
2020/12/08 11:12:45;;;;;;;6.85;1.48;;;;;;;;;;5050885;28;20116;-55
2020/12/08 11:15:11;;;;;;;3.97;1.40;;;;;;;;;;5051460;28;20045;-54
2020/12/08 11:17:37;;;;;;;5.70;1.42;;;;;;;;;;5048412;28;20053;-54
2020/12/08 11:20:04;;;;;;;3.92;1.48;;;;;;;;;;5050155;28;20052;-53
2020/12/08 11:22:31;;;;;;;6.90;1.23;;;;;;;;;;5050018;28;20048;-54
2020/12/08 11:24:58;;;;;;;4.13;1.30;;;;;;;;;;5051483;28;20048;-55
2020/12/08 11:27:23;;;;;;;5.40;1.10;;;;;;;;;;5049824;28;20041;-52
2020/12/08 11:29:49;;;;;;;4.63;1.20;;;;;;;;;;5049677;28;20067;-56
2020/12/08 11:32:15;;;;;;;7.60;1.50;;;;;;;;;;5050939;28;20045;-55
2020/12/08 11:34:41;;;;;;;3.42;1.10;;;;;;;;;;5050113;28;20029;-54
2020/12/08 11:37:07;;;;;;;5.60;0.98;;;;;;;;;;5055064;28;20056;-56
2020/12/08 11:39:33;;;;;;;7.28;1.48;;;;;;;;;;5053970;28;20072;-56
2020/12/08 11:41:59;;;;;;;6.55;1.60;;;;;;;;;;5054543;28;20044;-56
2020/12/08 11:44:25;;;;;;;7.55;1.13;;;;;;;;;;5054111;28;20071;-55
2020/12/08 11:46:55;;;;;;;5.75;1.20;;;;;;;;;;5054614;28;20549;-55
2020/12/08 11:49:21;;;;;;;3.20;1.10;;;;;;;;;;5053512;28;20779;-53
2020/12/08 11:51:47;;;;;;;5.97;1.20;;;;;;;;;;5054914;28;20045;-52
2020/12/08 11:54:13;;;;;;;3.22;1.00;;;;;;;;;;5054578;28;20931;-54
2020/12/08 11:56:39;;;;;;;3.45;1.00;;;;;;;;;;5053466;28;20041;-53
2020/12/08 11:59:05;;;;;;;3.10;1.02;;;;;;;;;;5053682;28;20116;-56
2020/12/08 12:01:31;;;;;;;2.95;0.73;;;;;;;;;;5052064;28;20037;-54
2020/12/08 12:03:57;;;;;;;3.72;0.90;;;;;;;;;;5054085;28;20040;-55
2020/12/08 12:06:23;;;;;;;10.63;4.00;;;;;;;;;;5052836;28;20033;-55
2020/12/08 12:08:49;;;;;;;6.15;1.80;;;;;;;;;;5054260;28;20070;-56
2020/12/08 12:11:15;;;;;;;4.30;1.27;;;;;;;;;;5054508;28;20041;-56
2020/12/08 12:13:41;;;;;;;3.72;1.10;;;;;;;;;;5053154;28;20048;-55
2020/12/08 12:16:07;;;;;;;3.72;1.10;;;;;;;;;;5053486;28;20071;-55
2020/12/08 12:18:32;;;;;;;4.50;1.20;;;;;;;;;;5053004;28;20055;-56
2020/12/08 12:20:58;;;;;;;3.15;0.73;;;;;;;;;;5053617;28;20045;-55
2020/12/08 12:23:24;;;;;;;2.70;0.80;;;;;;;;;;5052678;28;20063;-55
2020/12/08 12:25:50;;;;;;;4.05;1.38;;;;;;;;;;5053061;28;20049;-56
2020/12/08 12:28:16;;;;;;;3.28;1.10;;;;;;;;;;5053210;28;20124;-55
2020/12/08 12:30:42;;;;;;;2.97;0.85;;;;;;;;;;5052824;28;20578;-54
2020/12/08 12:33:08;;;;;;;4.55;0.90;;;;;;;;;;5054650;28;20056;-54
2020/12/08 12:35:34;;;;;;;4.80;0.90;;;;;;;;;;5052924;28;20037;-54
2020/12/08 12:38:00;;;;;;;4.07;0.75;;;;;;;;;;5053124;28;20056;-56
2020/12/08 12:40:26;;;;;;;4.32;0.70;;;;;;;;;;5052983;28;20543;-56
2020/12/08 12:42:52;;;;;;;2.65;0.70;;;;;;;;;;5053117;28;20147;-53
2020/12/08 12:45:17;;;;;;;4.95;0.90;;;;;;;;;;5051635;28;20052;-52
2020/12/08 12:47:43;;;;;;;2.30;0.77;;;;;;;;;;5053289;28;20040;-55
2020/12/08 12:50:09;;;;;;;4.82;0.90;;;;;;;;;;5053943;28;20037;-55
2020/12/08 12:52:35;;;;;;;3.75;1.00;;;;;;;;;;5054146;28;20045;-59
2020/12/08 12:55:01;;;;;;;3.00;0.80;;;;;;;;;;5054071;28;20032;-52
2020/12/08 12:57:27;;;;;;;2.92;0.70;;;;;;;;;;5052136;28;20122;-54
2020/12/08 12:59:52;;;;;;;3.20;1.00;;;;;;;;;;5052681;28;20045;-54
2020/12/08 13:02:18;;;;;;;4.82;1.10;;;;;;;;;;5053010;28;20037;-54
2020/12/08 13:04:44;;;;;;;4.63;1.13;;;;;;;;;;5052350;28;20246;-52
2020/12/08 13:07:15;;;;;;;3.25;1.13;;;;;;;;;;5053197;28;20066;-56
2020/12/08 13:09:40;;;;;;;4.05;1.05;;;;;;;;;;5051778;28;20045;-55
2020/12/08 13:12:06;;;;;;;4.38;1.00;;;;;;;;;;5051692;28;20570;-55
2020/12/08 13:14:32;;;;;;;2.92;0.98;;;;;;;;;;5051081;28;20067;-54
2020/12/08 13:16:58;;;;;;;5.60;1.40;;;;;;;;;;5052717;28;20052;-56
2020/12/08 13:19:24;;;;;;;3.80;1.40;;;;;;;;;;5052492;28;20375;-51
2020/12/08 13:21:51;;;;;;;7.35;1.60;;;;;;;;;;5052439;28;20055;-56
2020/12/08 13:24:17;;;;;;;3.95;1.50;;;;;;;;;;5051792;28;20127;-56
2020/12/08 13:26:43;;;;;;;4.45;1.25;;;;;;;;;;5050427;28;20049;-54
2020/12/08 13:29:09;;;;;;;4.45;1.20;;;;;;;;;;5052701;28;20037;-51
2020/12/08 13:31:36;;;;;;;4.50;1.00;;;;;;;;;;5051351;28;20508;-54
2020/12/08 13:34:02;;;;;;;6.18;3.10;;;;;;;;;;5049200;28;21527;-54
2020/12/08 13:36:28;;;;;;;4.25;1.40;;;;;;;;;;5051234;28;20064;-52
2020/12/08 13:38:54;;;;;;;5.03;1.40;;;;;;;;;;5051448;28;20463;-55
2020/12/08 13:41:20;;;;;;;5.07;1.83;;;;;;;;;;5050282;28;20040;-54
2020/12/08 13:43:46;;;;;;;3.33;0.93;;;;;;;;;;5050970;28;20411;-52
2020/12/08 13:46:12;;;;;;;4.78;1.25;;;;;;;;;;5051532;28;20045;-55
2020/12/08 13:48:38;;;;;;;7.13;1.40;;;;;;;;;;5050531;28;20049;-51
2020/12/08 13:51:03;;;;;;;3.85;1.20;;;;;;;;;;5051904;28;20068;-53
2020/12/08 13:53:29;;;;;;;14.90;6.97;;;;;;;;;;5050806;28;20064;-54
2020/12/08 13:55:56;;;;;;;4.40;1.75;;;;;;;;;;5050765;28;20151;-56
2020/12/08 13:58:22;;;;;;;4.93;2.00;;;;;;;;;;5049364;28;20050;-56
2020/12/08 14:00:49;;;;;;;4.93;1.27;;;;;;;;;;5051521;28;20032;-56
2020/12/08 14:03:15;;;;;;;3.92;1.27;;;;;;;;;;5051921;28;20067;-54
2020/12/08 14:05:41;;;;;;;5.20;1.17;;;;;;;;;;5050975;28;20616;-56
2020/12/08 14:08:07;;;;;;;3.72;1.48;;;;;;;;;;5052327;28;20047;-54
2020/12/08 14:10:33;;;;;;;2.75;0.75;;;;;;;;;;5051717;28;20033;-55
2020/12/08 14:12:59;;;;;;;2.50;0.80;;;;;;;;;;5052307;28;20045;-55
2020/12/08 14:15:26;;;;;;;2.92;0.60;;;;;;;;;;5051416;28;20045;-52
2020/12/08 14:17:53;;;;;;;2.15;0.60;;;;;;;;;;5052442;28;20045;-51
2020/12/08 14:20:21;;;;;;;2.63;0.60;;;;;;;;;;5051590;28;20029;-55
2020/12/08 14:22:47;;;;;;;4.72;0.90;;;;;;;;;;5052396;28;20049;-52
2020/12/08 14:25:14;;;;;;;3.53;1.50;;;;;;;;;;5050210;28;20117;-53
2020/12/08 14:27:41;;;;;;;2.65;0.75;;;;;;;;;;5051111;28;20074;-53
2020/12/08 14:30:06;;;;;;;3.40;0.73;;;;;;;;;;5051406;28;20477;-54
2020/12/08 14:32:36;;;;;;;3.40;0.70;;;;;;;;;;5056536;28;20052;-53
2020/12/08 14:35:06;;;;;;;2.15;0.70;;;;;;;;;;5052189;28;20041;-56